Time;durP1;ratioP1;P1;durP2;ratioP2;P2;SDS_P1;SDS_P2;PMS_P1;PMS_P2;Temp;Humidity;BMP_temperature;BMP_pressure;BME280_temperature;BME280_humidity;BME280_pressure;Samples;Min_cycle;Max_cycle;Signal;HPM_P1;HPM_P2
2022/06/18 00:01:33;;;;;;;;;;;20.00;99.40;;;;;;5096746;27;37398;-56
2022/06/18 00:04:01;;;;;;;;;;;20.00;99.50;;;;;;5096960;27;38530;-57
2022/06/18 00:06:29;;;;;;;;;;;20.00;99.50;;;;;;5097335;27;35359;-57
2022/06/18 00:08:56;;;;;;;;;;;20.00;99.60;;;;;;5096883;27;37586;-56
2022/06/18 00:14:10;;;;;;;;;;;20.10;99.80;;;;;;5095868;28;38401;-56
2022/06/18 00:16:37;;;;;;;;;;;20.10;99.60;;;;;;5097044;27;37066;-56
2022/06/18 00:19:04;;;;;;;;;;;20.10;99.60;;;;;;5096728;27;37979;-57
2022/06/18 00:21:31;;;;;;;;;;;20.00;99.50;;;;;;5096398;28;37874;-56
2022/06/18 00:23:58;;;;;;;;;;;20.10;99.60;;;;;;5096677;27;40429;-56
2022/06/18 00:26:26;;;;;;;;;;;20.00;99.50;;;;;;5096881;27;37446;-56
2022/06/18 00:28:53;;;;;;;;;;;20.00;99.50;;;;;;5096341;27;38426;-56
2022/06/18 00:31:20;;;;;;;;;;;20.00;99.60;;;;;;5096399;27;40036;-56
2022/06/18 00:33:47;;;;;;;;;;;20.00;99.60;;;;;;5095711;27;37477;-56
2022/06/18 00:36:16;;;;;;;;;;;20.00;99.60;;;;;;5096592;27;36125;-56
2022/06/18 00:38:44;;;;;;;;;;;20.00;99.60;;;;;;5095881;27;36374;-56
2022/06/18 00:41:15;;;;;;;;;;;20.00;99.60;;;;;;5096318;27;38396;-56
2022/06/18 00:43:45;;;;;;;;;;;20.00;99.60;;;;;;5096132;28;38102;-56
2022/06/18 00:46:14;;;;;;;;;;;20.00;99.40;;;;;;5096359;28;37015;-56
2022/06/18 00:48:46;;;;;;;;;;;20.00;99.40;;;;;;5095936;27;38431;-56
2022/06/18 00:51:14;;;;;;;;;;;19.90;99.40;;;;;;5096001;27;38081;-56
2022/06/18 00:53:43;;;;;;;;;;;19.90;99.40;;;;;;5096300;27;37918;-56
2022/06/18 00:56:13;;;;;;;;;;;19.90;99.20;;;;;;5095976;27;37848;-56
2022/06/18 00:58:42;;;;;;;;;;;19.90;99.00;;;;;;5094507;27;37828;-56
2022/06/18 01:01:13;;;;;;;;;;;19.90;98.90;;;;;;5095217;27;37825;-56
2022/06/18 01:03:43;;;;;;;;;;;19.90;98.90;;;;;;5094815;27;38317;-56
2022/06/18 01:06:13;;;;;;;;;;;19.90;98.80;;;;;;5094197;27;36587;-56
2022/06/18 01:08:41;;;;;;;;;;;19.90;98.80;;;;;;5094797;27;37389;-56
2022/06/18 01:11:16;;;;;;;;;;;19.90;98.80;;;;;;5094111;27;38139;-56
2022/06/18 01:13:43;;;;;;;;;;;19.90;98.70;;;;;;5094538;28;36523;-56
2022/06/18 01:16:12;;;;;;;;;;;19.90;98.50;;;;;;5094376;27;37039;-56
2022/06/18 01:18:39;;;;;;;;;;;19.90;98.60;;;;;;5093966;27;37871;-56
2022/06/18 01:21:11;;;;;;;;;;;19.80;98.70;;;;;;5094314;27;37751;-56
2022/06/18 01:23:41;;;;;;;;;;;19.80;98.70;;;;;;5093691;28;37816;-56
2022/06/18 01:26:11;;;;;;;;;;;19.80;98.70;;;;;;5094401;27;36153;-56
2022/06/18 01:28:38;;;;;;;;;;;19.80;98.60;;;;;;5093835;27;37683;-56
2022/06/18 01:31:05;;;;;;;;;;;19.80;98.80;;;;;;5094423;27;38217;-56
2022/06/18 01:33:32;;;;;;;;;;;19.80;98.80;;;;;;5094239;27;36963;-56
2022/06/18 01:36:02;;;;;;;;;;;19.70;98.90;;;;;;5094092;27;35038;-56
2022/06/18 01:38:29;;;;;;;;;;;19.70;98.90;;;;;;5093918;27;37627;-57
2022/06/18 01:41:49;;;;;;;;;;;19.70;99.00;;;;;;5094376;27;39513;-57
2022/06/18 01:43:47;;;;;;;;;;;19.70;99.10;;;;;;5093050;28;38051;-56
2022/06/18 01:46:14;;;;;;;;;;;19.60;99.20;;;;;;5094215;27;36359;-56
2022/06/18 01:48:43;;;;;;;;;;;19.50;99.10;;;;;;5094101;27;37885;-56
2022/06/18 01:51:12;;;;;;;;;;;19.50;99.20;;;;;;5094103;28;37900;-57
2022/06/18 01:53:42;;;;;;;;;;;19.50;99.30;;;;;;5093860;27;38283;-57
2022/06/18 01:56:10;;;;;;;;;;;19.50;99.40;;;;;;5093249;27;37064;-56
2022/06/18 01:58:40;;;;;;;;;;;19.50;99.50;;;;;;5028589;27;1810909;-56
2022/06/18 02:01:12;;;;;;;;;;;19.50;99.60;;;;;;5094150;27;38622;-56
2022/06/18 02:03:39;;;;;;;;;;;19.40;99.80;;;;;;5094752;27;37389;-56
2022/06/18 02:06:08;;;;;;;;;;;19.40;99.80;;;;;;5095426;27;37051;-46
2022/06/18 02:08:35;;;;;;;;;;;19.40;99.90;;;;;;5094873;27;37783;-46
2022/06/18 02:11:03;;;;;;;;;;;19.40;99.90;;;;;;5093927;27;38647;-47
2022/06/18 02:13:34;;;;;;;;;;;19.40;99.90;;;;;;5092818;28;37267;-45
2022/06/18 02:16:03;;;;;;;;;;;19.30;99.90;;;;;;5094856;27;37658;-46
2022/06/18 02:18:33;;;;;;;;;;;19.30;99.90;;;;;;5095081;27;38224;-46
2022/06/18 02:21:00;;;;;;;;;;;19.30;99.90;;;;;;5093483;27;37812;-48
2022/06/18 02:23:27;;;;;;;;;;;19.20;99.90;;;;;;5094993;27;37053;-47
2022/06/18 02:25:54;;;;;;;;;;;19.20;99.90;;;;;;5094225;28;37010;-47
2022/06/18 02:28:23;;;;;;;;;;;19.20;99.90;;;;;;5093884;27;37664;-47
2022/06/18 02:30:52;;;;;;;;;;;19.20;99.90;;;;;;5095026;27;37246;-45
2022/06/18 02:33:26;;;;;;;;;;;19.10;99.90;;;;;;5094769;27;37526;-50
2022/06/18 02:35:55;;;;;;;;;;;19.10;99.90;;;;;;5094656;27;37050;-47
2022/06/18 02:38:23;;;;;;;;;;;19.10;99.90;;;;;;5094653;27;36972;-49
2022/06/18 02:40:50;;;;;;;;;;;19.00;99.90;;;;;;5094909;27;37538;-49
2022/06/18 02:43:20;;;;;;;;;;;19.00;99.90;;;;;;5094342;27;37950;-46
2022/06/18 02:45:49;;;;;;;;;;;19.00;99.90;;;;;;5094291;28;36187;-47
2022/06/18 02:48:16;;;;;;;;;;;19.00;99.90;;;;;;5094756;27;38491;-46
2022/06/18 02:50:44;;;;;;;;;;;19.00;99.90;;;;;;5094109;27;38253;-47
2022/06/18 02:53:13;;;;;;;;;;;18.90;99.90;;;;;;5093844;27;38420;-48
2022/06/18 02:55:41;;;;;;;;;;;18.90;99.90;;;;;;5094119;27;38359;-46
2022/06/18 02:58:11;;;;;;;;;;;18.90;99.90;;;;;;5093869;28;37994;-47
2022/06/18 03:00:39;;;;;;;;;;;18.80;99.90;;;;;;5093165;27;37304;-50
2022/06/18 03:03:06;;;;;;;;;;;18.80;99.90;;;;;;5094269;28;37317;-47
2022/06/18 03:05:33;;;;;;;;;;;18.80;99.90;;;;;;5093455;28;38189;-48
2022/06/18 03:08:00;;;;;;;;;;;18.80;99.90;;;;;;5093821;27;37099;-46
2022/06/18 03:13:28;;;;;;;;;;;18.80;99.90;;;;;;5032545;28;37640;-46
2022/06/18 03:15:56;;;;;;;;;;;18.70;99.90;;;;;;5032631;28;36582;-47
2022/06/18 03:18:24;;;;;;;;;;;18.70;99.90;;;;;;5058869;27;38417;-46
2022/06/18 03:20:56;;;;;;;;;;;18.70;99.90;;;;;;5093914;28;38954;-45
2022/06/18 03:23:24;;;;;;;;;;;18.70;99.90;;;;;;5093537;27;38101;-49
2022/06/18 03:25:52;;;;;;;;;;;18.60;99.90;;;;;;5094082;27;37257;-47
2022/06/18 03:28:20;;;;;;;;;;;18.60;99.90;;;;;;5093895;27;38462;-46
2022/06/18 03:30:47;;;;;;;;;;;18.60;99.90;;;;;;5094119;27;36553;-47
2022/06/18 03:33:14;;;;;;;;;;;18.60;99.90;;;;;;5094003;27;38555;-47
2022/06/18 03:35:43;;;;;;;;;;;18.60;99.90;;;;;;5093423;28;35267;-47
2022/06/18 03:38:10;;;;;;;;;;;18.60;99.90;;;;;;5093341;27;36957;-49
2022/06/18 03:40:37;;;;;;;;;;;18.60;99.90;;;;;;5093499;27;38255;-47
2022/06/18 03:43:05;;;;;;;;;;;18.60;99.90;;;;;;5093968;27;37166;-46
2022/06/18 03:45:36;;;;;;;;;;;18.60;99.90;;;;;;5093403;27;37653;-47
2022/06/18 03:48:05;;;;;;;;;;;18.60;99.90;;;;;;5093797;27;37551;-45
2022/06/18 03:50:32;;;;;;;;;;;18.60;99.90;;;;;;5092837;27;37397;-50
2022/06/18 03:52:59;;;;;;;;;;;18.60;99.90;;;;;;5093443;27;37692;-48
2022/06/18 03:55:27;;;;;;;;;;;18.60;99.90;;;;;;5093827;27;36269;-47
2022/06/18 03:57:54;;;;;;;;;;;18.60;99.90;;;;;;5093557;27;39266;-50
2022/06/18 04:00:24;;;;;;;;;;;18.60;99.90;;;;;;5093523;28;36572;-48
2022/06/18 04:02:51;;;;;;;;;;;18.60;99.90;;;;;;5093298;28;38070;-47
2022/06/18 04:05:18;;;;;;;;;;;18.60;99.90;;;;;;5092988;27;36536;-46
2022/06/18 04:07:45;;;;;;;;;;;18.60;99.90;;;;;;5093016;28;36421;-46
2022/06/18 04:10:16;;;;;;;;;;;18.60;99.90;;;;;;5093172;27;38957;-46
2022/06/18 04:12:43;;;;;;;;;;;18.70;99.90;;;;;;5093245;27;37276;-46
2022/06/18 04:15:11;;;;;;;;;;;18.70;99.90;;;;;;5093192;28;35147;-49
2022/06/18 04:17:40;;;;;;;;;;;18.70;99.90;;;;;;5092979;27;37618;-47
2022/06/18 04:20:08;;;;;;;;;;;18.70;99.90;;;;;;5092713;27;37832;-49
2022/06/18 04:22:34;;;;;;;;;;;18.70;99.90;;;;;;5093108;27;37303;-49
2022/06/18 04:25:02;;;;;;;;;;;18.70;99.90;;;;;;5092932;27;35317;-46
2022/06/18 04:27:28;;;;;;;;;;;18.80;99.90;;;;;;5092277;27;38657;-48
2022/06/18 04:29:56;;;;;;;;;;;18.80;99.90;;;;;;5092386;27;36929;-45
2022/06/18 04:32:23;;;;;;;;;;;18.80;99.90;;;;;;5092736;27;37200;-46
2022/06/18 04:34:51;;;;;;;;;;;18.90;99.90;;;;;;5092966;27;37669;-49
2022/06/18 04:37:18;;;;;;;;;;;18.90;99.90;;;;;;5093549;27;36926;-46
2022/06/18 04:39:45;;;;;;;;;;;19.00;99.90;;;;;;5093024;27;38306;-48
2022/06/18 04:42:12;;;;;;;;;;;19.10;99.90;;;;;;5092217;27;38372;-46
2022/06/18 04:44:39;;;;;;;;;;;19.10;99.90;;;;;;5094826;27;37434;-48
2022/06/18 04:47:06;;;;;;;;;;;19.10;99.90;;;;;;5096409;27;38401;-47
2022/06/18 04:49:33;;;;;;;;;;;19.20;99.90;;;;;;5096543;27;38151;-47
2022/06/18 04:52:01;;;;;;;;;;;19.20;99.90;;;;;;5095996;27;37025;-47
2022/06/18 04:54:28;;;;;;;;;;;19.30;99.90;;;;;;5095824;27;36314;-49
2022/06/18 04:56:56;;;;;;;;;;;19.30;99.90;;;;;;5095684;27;37944;-51
2022/06/18 04:59:23;;;;;;;;;;;19.40;99.90;;;;;;5095552;27;38018;-48
2022/06/18 05:01:58;;;;;;;;;;;19.40;99.90;;;;;;5096393;27;38013;-48
2022/06/18 05:04:25;;;;;;;;;;;19.50;99.90;;;;;;5096365;27;36197;-48
2022/06/18 05:06:52;;;;;;;;;;;19.60;99.90;;;;;;5096306;27;37626;-48
2022/06/18 05:09:20;;;;;;;;;;;19.60;99.90;;;;;;5095402;27;38455;-47
2022/06/18 05:11:48;;;;;;;;;;;19.70;99.90;;;;;;5096066;27;37341;-47
2022/06/18 05:14:15;;;;;;;;;;;19.70;99.90;;;;;;5094929;27;36542;-48
2022/06/18 05:16:42;;;;;;;;;;;19.80;99.90;;;;;;5096187;27;37794;-46
2022/06/18 05:19:12;;;;;;;;;;;19.80;99.90;;;;;;5095727;27;37935;-49
2022/06/18 05:21:39;;;;;;;;;;;19.90;99.90;;;;;;5095510;27;38308;-48
2022/06/18 05:24:06;;;;;;;;;;;20.00;99.90;;;;;;5095690;27;36263;-48
2022/06/18 05:26:35;;;;;;;;;;;20.10;99.90;;;;;;5095877;27;38446;-50
2022/06/18 05:29:02;;;;;;;;;;;20.10;99.90;;;;;;5095416;27;39469;-48
2022/06/18 05:31:29;;;;;;;;;;;20.20;99.90;;;;;;5095341;27;36147;-49
2022/06/18 05:33:56;;;;;;;;;;;20.20;99.90;;;;;;5095420;27;36888;-48
2022/06/18 05:36:23;;;;;;;;;;;20.30;99.90;;;;;;5095519;27;37793;-48
2022/06/18 05:38:53;;;;;;;;;;;20.40;99.90;;;;;;5095563;27;39412;-45
2022/06/18 05:41:20;;;;;;;;;;;20.50;99.90;;;;;;5095321;27;36037;-47
2022/06/18 05:43:48;;;;;;;;;;;20.50;99.90;;;;;;5095508;27;38420;-50
2022/06/18 05:46:15;;;;;;;;;;;20.60;99.90;;;;;;5095508;28;37894;-49
2022/06/18 05:48:42;;;;;;;;;;;20.70;99.90;;;;;;5095186;27;37772;-47
2022/06/18 05:51:09;;;;;;;;;;;20.70;99.90;;;;;;5095309;27;37637;-48
2022/06/18 05:53:36;;;;;;;;;;;20.80;99.90;;;;;;5095197;27;38246;-48
2022/06/18 05:56:04;;;;;;;;;;;20.90;99.90;;;;;;5093891;27;39017;-48
2022/06/18 05:58:31;;;;;;;;;;;20.90;99.90;;;;;;5094244;27;37913;-50
2022/06/18 06:00:59;;;;;;;;;;;21.00;99.90;;;;;;5094842;27;37284;-50
2022/06/18 06:03:26;;;;;;;;;;;21.00;99.90;;;;;;5095048;27;36224;-49
2022/06/18 06:05:53;;;;;;;;;;;21.00;99.90;;;;;;5093868;27;39141;-48
2022/06/18 06:08:20;;;;;;;;;;;21.10;99.90;;;;;;5094888;27;37808;-49
2022/06/18 06:13:46;;;;;;;;;;;21.20;99.90;;;;;;5091967;28;37730;-47
2022/06/18 06:16:15;;;;;;;;;;;21.30;99.90;;;;;;5092036;28;38067;-47
2022/06/18 06:18:42;;;;;;;;;;;21.30;99.90;;;;;;5092428;27;38371;-46
2022/06/18 06:21:09;;;;;;;;;;;21.30;99.80;;;;;;5094031;27;37221;-47
2022/06/18 06:23:36;;;;;;;;;;;21.40;99.90;;;;;;5095241;28;34362;-50
2022/06/18 06:26:03;;;;;;;;;;;21.40;99.90;;;;;;5094438;27;37878;-47
2022/06/18 06:28:30;;;;;;;;;;;21.50;99.80;;;;;;5094747;28;36660;-51
2022/06/18 06:30:57;;;;;;;;;;;21.50;99.90;;;;;;5094137;27;37037;-47
2022/06/18 06:33:26;;;;;;;;;;;21.50;99.60;;;;;;5094219;27;36960;-49
2022/06/18 06:35:55;;;;;;;;;;;21.50;99.70;;;;;;5094904;27;36514;-50
2022/06/18 06:38:22;;;;;;;;;;;21.50;99.70;;;;;;5094164;27;38724;-49
2022/06/18 06:40:49;;;;;;;;;;;21.60;99.90;;;;;;5094420;27;38631;-49
2022/06/18 06:43:16;;;;;;;;;;;21.70;99.90;;;;;;5094633;27;36661;-48
2022/06/18 06:45:44;;;;;;;;;;;21.70;99.90;;;;;;5094118;27;36461;-50
2022/06/18 06:48:11;;;;;;;;;;;21.80;99.90;;;;;;5094197;28;38476;-49
2022/06/18 06:50:40;;;;;;;;;;;21.80;99.90;;;;;;5094716;27;36931;-48
2022/06/18 06:53:07;;;;;;;;;;;21.90;99.90;;;;;;5094327;27;36264;-49
2022/06/18 06:58:21;;;;;;;;;;;22.00;99.90;;;;;;5093766;28;40766;-48
2022/06/18 07:00:49;;;;;;;;;;;22.10;99.80;;;;;;5093952;27;37352;-48
2022/06/18 07:03:18;;;;;;;;;;;22.10;99.60;;;;;;5094720;27;36546;-47
2022/06/18 07:05:47;;;;;;;;;;;22.20;99.70;;;;;;5094098;27;38246;-48
2022/06/18 07:08:14;;;;;;;;;;;22.30;99.10;;;;;;5094336;27;37835;-49
2022/06/18 07:10:43;;;;;;;;;;;22.30;98.60;;;;;;5093989;27;36120;-51
2022/06/18 07:13:10;;;;;;;;;;;22.30;98.70;;;;;;5093843;27;36632;-48
2022/06/18 07:15:37;;;;;;;;;;;22.40;98.30;;;;;;5093807;27;37652;-49
2022/06/18 07:18:05;;;;;;;;;;;22.40;98.30;;;;;;5094172;28;38842;-47
2022/06/18 07:20:32;;;;;;;;;;;22.40;98.70;;;;;;5094152;28;36072;-47
2022/06/18 07:23:00;;;;;;;;;;;22.40;99.10;;;;;;5094364;27;37039;-47
2022/06/18 07:25:27;;;;;;;;;;;22.50;99.30;;;;;;5093642;27;37893;-46
2022/06/18 07:27:54;;;;;;;;;;;22.60;99.10;;;;;;5094028;27;37779;-48
2022/06/18 07:30:21;;;;;;;;;;;22.70;99.20;;;;;;5093229;27;36911;-49
2022/06/18 07:32:49;;;;;;;;;;;22.70;98.90;;;;;;5094007;28;37071;-47
2022/06/18 07:35:18;;;;;;;;;;;22.70;99.70;;;;;;5093787;27;36480;-49
2022/06/18 07:37:45;;;;;;;;;;;22.70;98.60;;;;;;5093551;27;37126;-49
2022/06/18 07:40:14;;;;;;;;;;;22.70;98.10;;;;;;5093389;27;38177;-49
2022/06/18 07:42:42;;;;;;;;;;;22.70;97.30;;;;;;5093089;27;37316;-48
2022/06/18 07:45:14;;;;;;;;;;;22.70;97.80;;;;;;5093220;27;38560;-49
2022/06/18 07:47:41;;;;;;;;;;;22.70;97.70;;;;;;5093518;27;37978;-47
2022/06/18 07:50:08;;;;;;;;;;;22.70;98.00;;;;;;5093161;28;37428;-50
2022/06/18 07:52:35;;;;;;;;;;;22.70;97.80;;;;;;5093009;27;35848;-50
2022/06/18 07:55:03;;;;;;;;;;;22.70;98.10;;;;;;5093323;27;37658;-47
2022/06/18 07:57:31;;;;;;;;;;;22.70;98.70;;;;;;5091597;27;38614;-45
2022/06/18 07:59:58;;;;;;;;;;;22.80;98.70;;;;;;5092721;28;38044;-48
2022/06/18 08:02:25;;;;;;;;;;;22.90;98.50;;;;;;5093515;28;37660;-49
2022/06/18 08:04:52;;;;;;;;;;;23.00;97.90;;;;;;5093654;27;37676;-47
2022/06/18 08:07:19;;;;;;;;;;;23.00;97.90;;;;;;5093039;27;38408;-51
2022/06/18 08:09:46;;;;;;;;;;;23.00;98.00;;;;;;5093380;27;37152;-50
2022/06/18 08:12:13;;;;;;;;;;;23.10;97.80;;;;;;5093034;27;36700;-47
2022/06/18 08:14:42;;;;;;;;;;;23.10;97.80;;;;;;5093243;27;38611;-49
2022/06/18 08:17:09;;;;;;;;;;;23.20;97.90;;;;;;5093478;27;37845;-48
2022/06/18 08:19:36;;;;;;;;;;;23.30;97.80;;;;;;5096793;27;37875;-47
2022/06/18 08:22:04;;;;;;;;;;;23.30;97.90;;;;;;5096277;27;36480;-50
2022/06/18 08:24:32;;;;;;;;;;;23.40;97.80;;;;;;5096245;28;39186;-48
2022/06/18 08:26:59;;;;;;;;;;;23.40;97.10;;;;;;5096547;27;37745;-47
2022/06/18 08:29:27;;;;;;;;;;;23.40;96.80;;;;;;5096847;27;37840;-49
2022/06/18 08:31:55;;;;;;;;;;;23.40;97.00;;;;;;5096067;27;36372;-51
2022/06/18 08:34:23;;;;;;;;;;;23.40;97.30;;;;;;5096838;27;38791;-50
2022/06/18 08:36:50;;;;;;;;;;;23.50;98.10;;;;;;5096703;27;36716;-50
2022/06/18 08:39:17;;;;;;;;;;;23.50;97.00;;;;;;5095555;27;37231;-48
2022/06/18 08:41:54;;;;;;;;;;;23.50;97.90;;;;;;5096516;27;36302;-48
2022/06/18 08:44:33;;;;;;;;;;;23.50;97.10;;;;;;5095580;27;37943;-50
2022/06/18 08:47:05;;;;;;;;;;;23.60;97.60;;;;;;5095950;27;39392;-50
2022/06/18 08:49:44;;;;;;;;;;;23.60;96.60;;;;;;5096221;27;38413;-48
2022/06/18 08:52:22;;;;;;;;;;;23.60;96.90;;;;;;5095928;27;36802;-50
2022/06/18 08:54:54;;;;;;;;;;;23.70;97.60;;;;;;5096570;27;38733;-48
2022/06/18 08:57:26;;;;;;;;;;;23.70;97.00;;;;;;5095781;27;38722;-47
2022/06/18 08:59:59;;;;;;;;;;;23.70;96.50;;;;;;5095475;28;37691;-50
2022/06/18 09:02:32;;;;;;;;;;;23.70;97.40;;;;;;5095887;27;34880;-49
2022/06/18 09:05:03;;;;;;;;;;;23.70;97.00;;;;;;5095307;27;38438;-47
2022/06/18 09:07:40;;;;;;;;;;;23.80;96.80;;;;;;5095711;27;38446;-47
2022/06/18 09:10:12;;;;;;;;;;;23.90;96.60;;;;;;5095782;27;37199;-50
2022/06/18 09:12:42;;;;;;;;;;;24.00;96.30;;;;;;5096060;27;37020;-48
2022/06/18 09:15:12;;;;;;;;;;;23.90;95.40;;;;;;5095781;28;38356;-48
2022/06/18 09:17:42;;;;;;;;;;;24.00;95.80;;;;;;5095911;28;39085;-51
2022/06/18 09:20:11;;;;;;;;;;;24.00;95.70;;;;;;5095628;27;36927;-48
2022/06/18 09:22:42;;;;;;;;;;;24.10;95.90;;;;;;5096031;27;36511;-48
2022/06/18 09:25:12;;;;;;;;;;;24.10;94.80;;;;;;5095400;27;37493;-51
2022/06/18 09:27:43;;;;;;;;;;;24.00;95.70;;;;;;5094834;28;38077;-50
2022/06/18 09:30:14;;;;;;;;;;;24.10;95.50;;;;;;5095243;27;36623;-46
2022/06/18 09:32:47;;;;;;;;;;;24.20;94.90;;;;;;5095554;27;38213;-50
2022/06/18 09:35:16;;;;;;;;;;;24.20;94.00;;;;;;5095230;27;39304;-46
2022/06/18 09:37:46;;;;;;;;;;;24.20;95.30;;;;;;5095032;27;38165;-50
2022/06/18 09:40:17;;;;;;;;;;;24.30;94.40;;;;;;5094600;27;37268;-50
2022/06/18 09:42:46;;;;;;;;;;;24.30;94.50;;;;;;5095000;28;37237;-49
2022/06/18 09:45:18;;;;;;;;;;;24.30;94.10;;;;;;5095574;27;37833;-48
2022/06/18 09:47:47;;;;;;;;;;;24.10;94.70;;;;;;5096080;27;39281;-46
2022/06/18 09:50:16;;;;;;;;;;;24.10;95.30;;;;;;5094912;27;37112;-49
2022/06/18 09:52:44;;;;;;;;;;;24.10;94.90;;;;;;5095718;27;36204;-51
2022/06/18 09:55:15;;;;;;;;;;;24.20;95.20;;;;;;5095651;27;38304;-50
2022/06/18 09:57:48;;;;;;;;;;;24.20;94.90;;;;;;5095400;27;36428;-49
2022/06/18 10:00:17;;;;;;;;;;;24.20;95.20;;;;;;5095461;27;36981;-49
2022/06/18 10:02:46;;;;;;;;;;;24.30;94.30;;;;;;5095699;27;36985;-50
2022/06/18 10:08:04;;;;;;;;;;;24.40;93.80;;;;;;5095477;28;37915;-47
2022/06/18 10:10:32;;;;;;;;;;;24.50;94.10;;;;;;5095345;27;38059;-46
2022/06/18 10:13:00;;;;;;;;;;;24.50;94.50;;;;;;5094914;27;35199;-48
2022/06/18 10:15:28;;;;;;;;;;;24.70;94.50;;;;;;5094593;27;38543;-49
2022/06/18 10:18:00;;;;;;;;;;;24.80;94.20;;;;;;5094890;27;39905;-49
2022/06/18 10:20:32;;;;;;;;;;;24.90;93.40;;;;;;5095150;27;36992;-50
2022/06/18 10:23:03;;;;;;;;;;;24.90;93.00;;;;;;5095336;27;36568;-50
2022/06/18 10:25:32;;;;;;;;;;;24.90;93.00;;;;;;5095169;27;38362;-49
2022/06/18 10:28:04;;;;;;;;;;;25.00;93.20;;;;;;5094500;28;36934;-47
2022/06/18 10:30:38;;;;;;;;;;;25.00;92.70;;;;;;5094443;27;37067;-50
2022/06/18 10:33:10;;;;;;;;;;;25.00;92.30;;;;;;5094282;27;37582;-50
2022/06/18 10:35:47;;;;;;;;;;;25.10;91.70;;;;;;5094701;27;39036;-50
2022/06/18 10:38:29;;;;;;;;;;;25.00;91.70;;;;;;5094810;27;39047;-48
2022/06/18 10:41:00;;;;;;;;;;;25.00;91.40;;;;;;5094166;27;37150;-52
2022/06/18 10:43:34;;;;;;;;;;;25.00;93.00;;;;;;5094364;27;35028;-48
2022/06/18 10:46:03;;;;;;;;;;;25.00;92.80;;;;;;5093957;27;37555;-50
2022/06/18 10:48:31;;;;;;;;;;;25.00;91.20;;;;;;5093669;27;36759;-47
2022/06/18 10:51:01;;;;;;;;;;;25.00;91.80;;;;;;5094303;28;36964;-46
2022/06/18 10:53:29;;;;;;;;;;;25.00;90.40;;;;;;5094262;27;36466;-47
2022/06/18 10:56:00;;;;;;;;;;;25.10;91.30;;;;;;5094058;28;38575;-50
2022/06/18 10:58:27;;;;;;;;;;;25.00;90.90;;;;;;5093828;27;36988;-50
2022/06/18 11:00:55;;;;;;;;;;;25.10;90.80;;;;;;5093973;27;37316;-46
2022/06/18 11:03:26;;;;;;;;;;;25.10;91.00;;;;;;5094021;27;36378;-50
2022/06/18 11:05:53;;;;;;;;;;;25.00;91.00;;;;;;5094197;27;38542;-48
2022/06/18 11:08:23;;;;;;;;;;;24.90;90.60;;;;;;5094253;27;38303;-48
2022/06/18 11:10:52;;;;;;;;;;;24.80;91.90;;;;;;5094162;27;38404;-49
2022/06/18 11:13:20;;;;;;;;;;;24.90;92.10;;;;;;5094133;27;36660;-51
2022/06/18 11:15:47;;;;;;;;;;;25.00;91.40;;;;;;5093886;27;37421;-48
2022/06/18 11:18:16;;;;;;;;;;;24.90;90.80;;;;;;5093229;27;38689;-48
2022/06/18 11:20:55;;;;;;;;;;;24.90;91.00;;;;;;5092976;27;37245;-49
2022/06/18 11:23:24;;;;;;;;;;;25.00;91.70;;;;;;5093423;27;37367;-47
2022/06/18 11:25:53;;;;;;;;;;;25.10;92.30;;;;;;5094034;28;38830;-50
2022/06/18 11:28:21;;;;;;;;;;;25.10;90.80;;;;;;5093842;27;38074;-50
2022/06/18 11:30:49;;;;;;;;;;;25.20;91.90;;;;;;5094113;28;37289;-48
2022/06/18 11:33:21;;;;;;;;;;;25.40;91.10;;;;;;5093665;27;37035;-48
2022/06/18 11:35:50;;;;;;;;;;;25.40;90.30;;;;;;5093494;27;38892;-48
2022/06/18 11:38:21;;;;;;;;;;;25.50;90.40;;;;;;5093417;27;38598;-50
2022/06/18 11:40:53;;;;;;;;;;;25.60;91.50;;;;;;5093392;27;36747;-50
2022/06/18 11:43:25;;;;;;;;;;;25.60;90.70;;;;;;5093636;27;36042;-47
2022/06/18 11:45:55;;;;;;;;;;;25.50;90.40;;;;;;5093457;28;37553;-51
2022/06/18 11:48:26;;;;;;;;;;;25.40;91.30;;;;;;5093731;27;38454;-48
2022/06/18 11:50:56;;;;;;;;;;;25.20;90.30;;;;;;5093059;27;37329;-51
2022/06/18 11:53:27;;;;;;;;;;;25.00;90.40;;;;;;5096573;27;37432;-49
2022/06/18 11:55:57;;;;;;;;;;;24.70;90.50;;;;;;5097078;27;38325;-48
2022/06/18 11:58:27;;;;;;;;;;;24.40;91.20;;;;;;5096774;27;36788;-47
2022/06/18 12:00:58;;;;;;;;;;;24.30;92.20;;;;;;5097240;27;38630;-46
2022/06/18 12:03:29;;;;;;;;;;;24.20;92.20;;;;;;5096931;27;36964;-48
2022/06/18 12:05:59;;;;;;;;;;;24.20;92.00;;;;;;5096778;27;38520;-49
2022/06/18 12:08:26;;;;;;;;;;;24.20;92.10;;;;;;5096700;27;39530;-47
2022/06/18 12:10:59;;;;;;;;;;;24.10;91.80;;;;;;5096035;27;37629;-50
2022/06/18 12:13:29;;;;;;;;;;;24.00;92.20;;;;;;5097170;27;35197;-48
2022/06/18 12:15:59;;;;;;;;;;;24.00;91.70;;;;;;5096476;27;37823;-49
2022/06/18 12:18:29;;;;;;;;;;;23.90;93.20;;;;;;5097071;27;38486;-49
2022/06/18 12:21:07;;;;;;;;;;;23.90;92.60;;;;;;5096543;27;37075;-48
2022/06/18 12:23:42;;;;;;;;;;;23.90;92.80;;;;;;5096487;28;37388;-46
2022/06/18 12:26:14;;;;;;;;;;;23.80;92.50;;;;;;5096639;27;37905;-46
2022/06/18 12:28:46;;;;;;;;;;;23.70;91.80;;;;;;5095767;27;38997;-48
2022/06/18 12:31:15;;;;;;;;;;;23.60;92.10;;;;;;5096271;28;36021;-50
2022/06/18 12:33:46;;;;;;;;;;;23.60;93.10;;;;;;5095837;27;37297;-50
2022/06/18 12:36:17;;;;;;;;;;;23.60;92.50;;;;;;5096655;27;37444;-48
2022/06/18 12:38:54;;;;;;;;;;;23.60;92.00;;;;;;5096451;27;36754;-50
2022/06/18 12:41:38;;;;;;;;;;;23.50;91.60;;;;;;5096069;27;37489;-47
2022/06/18 12:44:10;;;;;;;;;;;23.40;91.40;;;;;;5095786;28;38632;-48
2022/06/18 12:46:41;;;;;;;;;;;23.30;91.90;;;;;;5096715;27;36550;-50
2022/06/18 12:49:10;;;;;;;;;;;23.30;92.20;;;;;;5096088;27;38903;-48
2022/06/18 12:51:42;;;;;;;;;;;23.30;92.80;;;;;;5096181;27;38704;-50
2022/06/18 12:54:16;;;;;;;;;;;23.30;92.80;;;;;;5096180;27;37018;-49
2022/06/18 12:56:48;;;;;;;;;;;23.30;93.40;;;;;;5096044;27;38715;-47
2022/06/18 12:59:19;;;;;;;;;;;23.30;92.30;;;;;;5095330;27;36807;-49
2022/06/18 13:01:51;;;;;;;;;;;23.20;92.60;;;;;;5095660;27;37224;-50
2022/06/18 13:04:33;;;;;;;;;;;23.10;92.30;;;;;;5095832;27;35289;-47
2022/06/18 13:07:03;;;;;;;;;;;23.10;92.30;;;;;;5093457;27;38960;-48
2022/06/18 13:09:38;;;;;;;;;;;23.00;92.00;;;;;;5094893;28;36686;-48
2022/06/18 13:12:12;;;;;;;;;;;22.90;92.20;;;;;;5095643;27;35999;-48
2022/06/18 13:15:01;;;;;;;;;;;22.90;91.90;;;;;;5094535;27;34967;-48
2022/06/18 13:17:30;;;;;;;;;;;22.80;91.80;;;;;;5095382;27;38989;-48
2022/06/18 13:20:00;;;;;;;;;;;22.70;92.40;;;;;;5095892;27;37720;-47
2022/06/18 13:22:27;;;;;;;;;;;22.50;91.60;;;;;;5095986;27;37890;-49
2022/06/18 13:28:12;;;;;;;;;;;22.20;91.70;;;;;;5072062;28;38229;-47
2022/06/18 13:30:52;;;;;;;;;;;22.10;91.50;;;;;;5093122;27;37619;-47
2022/06/18 13:33:24;;;;;;;;;;;22.00;91.40;;;;;;5095305;27;38350;-48
2022/06/18 13:35:55;;;;;;;;;;;21.90;91.30;;;;;;5096096;27;37255;-49
2022/06/18 13:38:24;;;;;;;;;;;21.90;92.00;;;;;;5095093;28;37629;-49
2022/06/18 13:40:52;;;;;;;;;;;21.90;91.70;;;;;;5094635;27;39396;-50
2022/06/18 13:43:28;;;;;;;;;;;21.80;90.30;;;;;;5095159;27;38938;-49
2022/06/18 13:45:58;;;;;;;;;;;21.80;90.80;;;;;;5094815;27;36659;-47
2022/06/18 13:48:40;;;;;;;;;;;21.70;91.70;;;;;;5095045;27;37949;-51
2022/06/18 13:51:08;;;;;;;;;;;21.70;91.80;;;;;;5092942;28;38684;-50
2022/06/18 13:53:37;;;;;;;;;;;21.70;91.20;;;;;;5095720;27;37167;-49
2022/06/18 13:56:17;;;;;;;;;;;21.70;92.60;;;;;;5095369;27;37846;-49
2022/06/18 13:58:50;;;;;;;;;;;21.80;91.70;;;;;;5094898;27;37656;-49
2022/06/18 14:01:19;;;;;;;;;;;21.80;90.60;;;;;;5094837;27;38752;-49
2022/06/18 14:03:48;;;;;;;;;;;21.70;90.40;;;;;;5095742;27;37320;-50
2022/06/18 14:06:16;;;;;;;;;;;21.70;89.60;;;;;;5094736;27;35799;-46
2022/06/18 14:08:47;;;;;;;;;;;21.60;90.10;;;;;;5094550;28;38602;-50
2022/06/18 14:11:27;;;;;;;;;;;21.60;90.60;;;;;;5094230;27;39423;-49
2022/06/18 14:13:57;;;;;;;;;;;21.50;89.50;;;;;;5094868;28;36096;-50
2022/06/18 14:16:29;;;;;;;;;;;21.60;89.90;;;;;;5093924;27;36835;-49
2022/06/18 14:19:06;;;;;;;;;;;21.60;89.90;;;;;;5095369;27;38664;-47
2022/06/18 14:21:34;;;;;;;;;;;21.60;88.50;;;;;;5094994;27;38229;-47
2022/06/18 14:24:01;;;;;;;;;;;21.60;85.00;;;;;;5095139;27;37912;-47
2022/06/18 14:26:39;;;;;;;;;;;21.60;85.70;;;;;;5094982;27;36245;-51
2022/06/18 14:29:07;;;;;;;;;;;21.60;86.30;;;;;;5093662;27;36226;-48
2022/06/18 14:31:38;;;;;;;;;;;21.60;87.30;;;;;;5095082;27;37577;-50
2022/06/18 14:34:07;;;;;;;;;;;21.60;86.70;;;;;;5094429;27;38304;-48
2022/06/18 14:36:36;;;;;;;;;;;21.60;86.60;;;;;;5094576;28;35418;-49
2022/06/18 14:39:05;;;;;;;;;;;21.60;88.50;;;;;;5095137;27;36570;-50
2022/06/18 14:41:36;;;;;;;;;;;21.60;90.00;;;;;;5094685;27;39325;-48
2022/06/18 14:44:20;;;;;;;;;;;21.60;86.30;;;;;;5094350;27;37934;-46
2022/06/18 14:46:58;;;;;;;;;;;21.60;85.90;;;;;;5094548;27;36578;-48